sensor_id;sensor_type;location;lat;lon;timestamp;pressure;altitude;pressure_sealevel;temperature;humidity
50702;BME280;36670;50.094;8.496;2023-04-23T00:00:06;99615.56;;;16.45;66.25
50702;BME280;36670;50.094;8.496;2023-04-23T00:02:32;99609.09;;;16.49;66.32
50702;BME280;36670;50.094;8.496;2023-04-23T00:05:02;99615.38;;;16.41;66.55
50702;BME280;36670;50.094;8.496;2023-04-23T00:07:34;99618.34;;;16.45;66.41
50702;BME280;36670;50.094;8.496;2023-04-23T00:10:00;99607.75;;;16.47;66.66
50702;BME280;36670;50.094;8.496;2023-04-23T00:12:27;99615.47;;;16.64;65.48
50702;BME280;36670;50.094;8.496;2023-04-23T00:14:53;99614.97;;;16.48;66.88
50702;BME280;36670;50.094;8.496;2023-04-23T00:17:18;99616.59;;;16.77;65.52
50702;BME280;36670;50.094;8.496;2023-04-23T00:19:44;99608.78;;;16.65;65.63
50702;BME280;36670;50.094;8.496;2023-04-23T00:22:10;99615.69;;;16.67;65.74
50702;BME280;36670;50.094;8.496;2023-04-23T00:24:35;99614.34;;;16.65;65.92
50702;BME280;36670;50.094;8.496;2023-04-23T00:27:03;99609.59;;;16.65;65.43
50702;BME280;36670;50.094;8.496;2023-04-23T00:29:28;99618.34;;;16.72;65.69
50702;BME280;36670;50.094;8.496;2023-04-23T00:31:53;99616.41;;;16.73;65.31
50702;BME280;36670;50.094;8.496;2023-04-23T00:34:19;99613.72;;;16.68;65.78
50702;BME280;36670;50.094;8.496;2023-04-23T00:36:44;99613.50;;;16.64;65.96
50702;BME280;36670;50.094;8.496;2023-04-23T00:39:10;99609.38;;;16.89;65.00
50702;BME280;36670;50.094;8.496;2023-04-23T00:41:36;99615.25;;;16.88;64.88
50702;BME280;36670;50.094;8.496;2023-04-23T00:44:01;99615.25;;;17.02;64.56
50702;BME280;36670;50.094;8.496;2023-04-23T00:46:27;99621.47;;;16.71;65.27
50702;BME280;36670;50.094;8.496;2023-04-23T00:48:53;99621.38;;;16.76;65.07
50702;BME280;36670;50.094;8.496;2023-04-23T00:51:20;99614.03;;;16.80;65.28
50702;BME280;36670;50.094;8.496;2023-04-23T00:53:46;99614.75;;;16.58;65.92
50702;BME280;36670;50.094;8.496;2023-04-23T00:56:12;99615.69;;;16.26;66.59
50702;BME280;36670;50.094;8.496;2023-04-23T00:58:38;99616.91;;;16.47;66.08
50702;BME280;36670;50.094;8.496;2023-04-23T01:01:04;99609.16;;;16.16;66.66
50702;BME280;36670;50.094;8.496;2023-04-23T01:03:30;99601.75;;;16.26;66.58
50702;BME280;36670;50.094;8.496;2023-04-23T01:05:57;99607.31;;;16.26;67.46
50702;BME280;36670;50.094;8.496;2023-04-23T01:08:23;99606.19;;;16.41;66.87
50702;BME280;36670;50.094;8.496;2023-04-23T01:10:51;99605.28;;;16.45;67.12
50702;BME280;36670;50.094;8.496;2023-04-23T01:13:16;99603.94;;;16.43;66.44
50702;BME280;36670;50.094;8.496;2023-04-23T01:15:43;99599.47;;;16.28;66.86
50702;BME280;36670;50.094;8.496;2023-04-23T01:18:09;99603.06;;;16.28;66.44
50702;BME280;36670;50.094;8.496;2023-04-23T01:20:35;99602.38;;;16.50;66.73
50702;BME280;36670;50.094;8.496;2023-04-23T01:23:02;99612.78;;;16.45;66.70
50702;BME280;36670;50.094;8.496;2023-04-23T01:25:27;99609.91;;;16.36;66.75
50702;BME280;36670;50.094;8.496;2023-04-23T01:27:53;99613.91;;;16.16;67.77
50702;BME280;36670;50.094;8.496;2023-04-23T01:30:19;99611.47;;;15.81;68.13
50702;BME280;36670;50.094;8.496;2023-04-23T01:32:45;99604.38;;;16.03;67.83
50702;BME280;36670;50.094;8.496;2023-04-23T01:35:11;99606.66;;;16.01;67.98
50702;BME280;36670;50.094;8.496;2023-04-23T01:37:37;99614.41;;;16.04;68.01
50702;BME280;36670;50.094;8.496;2023-04-23T01:40:03;99607.19;;;16.17;67.63
50702;BME280;36670;50.094;8.496;2023-04-23T01:42:29;99611.63;;;16.18;67.03
50702;BME280;36670;50.094;8.496;2023-04-23T01:44:54;99617.44;;;16.21;67.62
50702;BME280;36670;50.094;8.496;2023-04-23T01:47:19;99620.31;;;16.30;67.42
50702;BME280;36670;50.094;8.496;2023-04-23T01:49:45;99622.06;;;16.26;67.07
50702;BME280;36670;50.094;8.496;2023-04-23T01:52:10;99619.28;;;16.26;67.10
50702;BME280;36670;50.094;8.496;2023-04-23T01:54:36;99622.38;;;16.25;67.38
50702;BME280;36670;50.094;8.496;2023-04-23T01:57:01;99635.97;;;16.12;67.20
50702;BME280;36670;50.094;8.496;2023-04-23T01:59:27;99637.06;;;15.97;67.63
50702;BME280;36670;50.094;8.496;2023-04-23T02:01:52;99641.84;;;16.11;67.99
50702;BME280;36670;50.094;8.496;2023-04-23T02:04:18;99640.91;;;16.15;67.01
50702;BME280;36670;50.094;8.496;2023-04-23T02:06:46;99646.19;;;16.17;67.29
50702;BME280;36670;50.094;8.496;2023-04-23T02:09:12;99636.50;;;16.28;66.60
50702;BME280;36670;50.094;8.496;2023-04-23T02:11:37;99651.31;;;16.57;66.75
50702;BME280;36670;50.094;8.496;2023-04-23T02:14:04;99638.78;;;16.26;67.00
50702;BME280;36670;50.094;8.496;2023-04-23T02:16:30;99641.84;;;16.11;67.09
50702;BME280;36670;50.094;8.496;2023-04-23T02:18:55;99639.41;;;15.71;68.88
50702;BME280;36670;50.094;8.496;2023-04-23T02:21:22;99636.13;;;15.88;68.21
50702;BME280;36670;50.094;8.496;2023-04-23T02:23:48;99635.91;;;15.84;68.25
50702;BME280;36670;50.094;8.496;2023-04-23T02:26:13;99634.84;;;15.80;68.32
50702;BME280;36670;50.094;8.496;2023-04-23T02:28:39;99635.84;;;16.03;68.01
50702;BME280;36670;50.094;8.496;2023-04-23T02:31:04;99636.00;;;16.26;67.52
50702;BME280;36670;50.094;8.496;2023-04-23T02:33:30;99627.31;;;16.14;67.23
50702;BME280;36670;50.094;8.496;2023-04-23T02:35:55;99631.50;;;15.97;67.87
50702;BME280;36670;50.094;8.496;2023-04-23T02:38:21;99635.16;;;16.12;67.87
50702;BME280;36670;50.094;8.496;2023-04-23T02:40:46;99633.16;;;15.98;68.19
50702;BME280;36670;50.094;8.496;2023-04-23T02:43:11;99629.00;;;16.29;67.57
50702;BME280;36670;50.094;8.496;2023-04-23T02:45:36;99644.97;;;16.23;67.39
50702;BME280;36670;50.094;8.496;2023-04-23T02:48:02;99638.16;;;16.29;67.31
50702;BME280;36670;50.094;8.496;2023-04-23T02:50:28;99636.31;;;15.92;67.76
50702;BME280;36670;50.094;8.496;2023-04-23T02:52:53;99655.47;;;15.60;68.09
50702;BME280;36670;50.094;8.496;2023-04-23T02:55:19;99650.25;;;15.92;68.47
50702;BME280;36670;50.094;8.496;2023-04-23T02:57:44;99648.06;;;15.89;68.45
50702;BME280;36670;50.094;8.496;2023-04-23T03:00:10;99650.47;;;15.95;68.09
50702;BME280;36670;50.094;8.496;2023-04-23T03:02:36;99654.78;;;15.68;68.19
50702;BME280;36670;50.094;8.496;2023-04-23T03:05:02;99660.03;;;15.70;68.19
50702;BME280;36670;50.094;8.496;2023-04-23T03:07:27;99655.16;;;15.81;68.36
50702;BME280;36670;50.094;8.496;2023-04-23T03:09:52;99649.66;;;15.76;68.77
50702;BME280;36670;50.094;8.496;2023-04-23T03:12:18;99652.06;;;15.63;69.19
50702;BME280;36670;50.094;8.496;2023-04-23T03:14:43;99656.34;;;15.75;68.98
50702;BME280;36670;50.094;8.496;2023-04-23T03:17:08;99652.28;;;15.67;68.83
50702;BME280;36670;50.094;8.496;2023-04-23T03:19:34;99651.75;;;15.65;69.25
50702;BME280;36670;50.094;8.496;2023-04-23T03:21:59;99651.09;;;15.92;67.82
50702;BME280;36670;50.094;8.496;2023-04-23T03:24:27;99655.38;;;15.84;68.14
50702;BME280;36670;50.094;8.496;2023-04-23T03:26:56;99653.34;;;15.90;68.00
50702;BME280;36670;50.094;8.496;2023-04-23T03:29:22;99651.38;;;15.91;68.05
50702;BME280;36670;50.094;8.496;2023-04-23T03:31:47;99656.41;;;15.69;68.39
50702;BME280;36670;50.094;8.496;2023-04-23T03:34:13;99658.28;;;15.93;67.71
50702;BME280;36670;50.094;8.496;2023-04-23T03:36:39;99651.47;;;15.85;67.95
50702;BME280;36670;50.094;8.496;2023-04-23T03:39:05;99654.59;;;15.79;68.47
50702;BME280;36670;50.094;8.496;2023-04-23T03:41:30;99654.06;;;15.96;67.29
50702;BME280;36670;50.094;8.496;2023-04-23T03:43:55;99652.91;;;15.83;67.73
50702;BME280;36670;50.094;8.496;2023-04-23T03:46:21;99653.09;;;15.86;68.13
50702;BME280;36670;50.094;8.496;2023-04-23T03:48:46;99652.94;;;15.97;66.89
50702;BME280;36670;50.094;8.496;2023-04-23T03:51:11;99649.97;;;15.74;68.50
50702;BME280;36670;50.094;8.496;2023-04-23T03:53:37;99654.72;;;15.55;68.84
50702;BME280;36670;50.094;8.496;2023-04-23T03:56:02;99652.38;;;15.62;69.06
50702;BME280;36670;50.094;8.496;2023-04-23T03:58:27;99653.13;;;15.67;68.16
50702;BME280;36670;50.094;8.496;2023-04-23T04:00:53;99654.19;;;15.52;68.26
50702;BME280;36670;50.094;8.496;2023-04-23T04:03:18;99649.88;;;15.79;67.59
50702;BME280;36670;50.094;8.496;2023-04-23T04:05:43;99659.81;;;15.66;68.38
50702;BME280;36670;50.094;8.496;2023-04-23T04:08:09;99663.50;;;15.62;68.70
50702;BME280;36670;50.094;8.496;2023-04-23T04:10:35;99665.13;;;15.63;68.30
50702;BME280;36670;50.094;8.496;2023-04-23T04:13:00;99655.28;;;15.70;68.28
50702;BME280;36670;50.094;8.496;2023-04-23T04:15:26;99654.47;;;15.70;68.34
50702;BME280;36670;50.094;8.496;2023-04-23T04:17:51;99655.06;;;15.67;68.38
50702;BME280;36670;50.094;8.496;2023-04-23T04:20:16;99659.28;;;15.83;67.91
50702;BME280;36670;50.094;8.496;2023-04-23T04:22:42;99646.59;;;16.24;66.91
50702;BME280;36670;50.094;8.496;2023-04-23T04:25:08;99654.09;;;16.10;67.09
50702;BME280;36670;50.094;8.496;2023-04-23T04:27:34;99661.97;;;16.08;67.12
50702;BME280;36670;50.094;8.496;2023-04-23T04:29:59;99658.91;;;15.90;67.43
50702;BME280;36670;50.094;8.496;2023-04-23T04:32:26;99663.78;;;15.98;67.52
50702;BME280;36670;50.094;8.496;2023-04-23T04:34:51;99666.63;;;15.93;67.75
50702;BME280;36670;50.094;8.496;2023-04-23T04:37:16;99667.78;;;15.92;67.81
50702;BME280;36670;50.094;8.496;2023-04-23T04:39:42;99667.06;;;16.00;67.53
50702;BME280;36670;50.094;8.496;2023-04-23T04:42:07;99673.59;;;16.10;67.41
50702;BME280;36670;50.094;8.496;2023-04-23T04:44:33;99671.59;;;16.29;66.44
50702;BME280;36670;50.094;8.496;2023-04-23T04:47:01;99674.44;;;16.24;66.02
50702;BME280;36670;50.094;8.496;2023-04-23T04:49:26;99679.63;;;15.84;67.51
50702;BME280;36670;50.094;8.496;2023-04-23T04:51:51;99673.78;;;15.99;66.90
50702;BME280;36670;50.094;8.496;2023-04-23T04:54:18;99667.19;;;15.95;67.19
50702;BME280;36670;50.094;8.496;2023-04-23T04:56:43;99673.81;;;15.80;67.63
50702;BME280;36670;50.094;8.496;2023-04-23T04:59:08;99670.72;;;15.82;67.51
50702;BME280;36670;50.094;8.496;2023-04-23T05:01:34;99675.25;;;16.11;66.73
50702;BME280;36670;50.094;8.496;2023-04-23T05:04:01;99669.16;;;16.09;67.37
50702;BME280;36670;50.094;8.496;2023-04-23T05:06:26;99672.50;;;15.92;67.28
50702;BME280;36670;50.094;8.496;2023-04-23T05:08:53;99674.16;;;16.26;66.77
50702;BME280;36670;50.094;8.496;2023-04-23T05:11:19;99673.25;;;16.30;65.83
50702;BME280;36670;50.094;8.496;2023-04-23T05:13:46;99668.28;;;16.27;66.30
50702;BME280;36670;50.094;8.496;2023-04-23T05:16:11;99675.28;;;16.25;65.99
50702;BME280;36670;50.094;8.496;2023-04-23T05:18:37;99669.31;;;16.17;66.35
50702;BME280;36670;50.094;8.496;2023-04-23T05:21:03;99675.09;;;16.35;66.75
50702;BME280;36670;50.094;8.496;2023-04-23T05:23:29;99674.72;;;16.55;65.86
50702;BME280;36670;50.094;8.496;2023-04-23T05:25:54;99673.06;;;16.68;65.60
50702;BME280;36670;50.094;8.496;2023-04-23T05:28:21;99678.34;;;16.70;65.83
50702;BME280;36670;50.094;8.496;2023-04-23T05:30:46;99680.41;;;16.64;66.76
50702;BME280;36670;50.094;8.496;2023-04-23T05:33:11;99673.78;;;16.60;65.92
50702;BME280;36670;50.094;8.496;2023-04-23T05:35:37;99679.47;;;16.55;66.80
50702;BME280;36670;50.094;8.496;2023-04-23T05:38:02;99680.75;;;16.91;66.74
50702;BME280;36670;50.094;8.496;2023-04-23T05:40:29;99670.50;;;18.32;65.17
50702;BME280;36670;50.094;8.496;2023-04-23T05:42:57;99667.41;;;19.32;62.96
50702;BME280;36670;50.094;8.496;2023-04-23T05:45:22;99666.63;;;19.75;61.45
50702;BME280;36670;50.094;8.496;2023-04-23T05:47:48;99672.53;;;19.38;61.08
50702;BME280;36670;50.094;8.496;2023-04-23T05:50:13;99675.25;;;18.95;61.16
50702;BME280;36670;50.094;8.496;2023-04-23T05:52:39;99683.25;;;18.24;62.13
50702;BME280;36670;50.094;8.496;2023-04-23T05:55:05;99693.69;;;18.10;62.14
50702;BME280;36670;50.094;8.496;2023-04-23T05:57:32;99694.72;;;17.91;62.21
50702;BME280;36670;50.094;8.496;2023-04-23T05:59:57;99695.75;;;17.82;62.54
50702;BME280;36670;50.094;8.496;2023-04-23T06:02:22;99701.63;;;17.94;62.33
50702;BME280;36670;50.094;8.496;2023-04-23T06:04:47;99700.31;;;17.78;62.70
50702;BME280;36670;50.094;8.496;2023-04-23T06:07:13;99700.16;;;17.60;62.70
50702;BME280;36670;50.094;8.496;2023-04-23T06:09:39;99704.28;;;17.26;63.19
50702;BME280;36670;50.094;8.496;2023-04-23T06:12:05;99697.88;;;17.12;63.62
50702;BME280;36670;50.094;8.496;2023-04-23T06:14:30;99700.78;;;17.06;63.48
50702;BME280;36670;50.094;8.496;2023-04-23T06:16:55;99695.47;;;17.47;63.94
50702;BME280;36670;50.094;8.496;2023-04-23T06:19:21;99692.19;;;18.35;62.08
50702;BME280;36670;50.094;8.496;2023-04-23T06:21:49;99683.03;;;18.75;61.61
50702;BME280;36670;50.094;8.496;2023-04-23T06:24:15;99686.44;;;18.63;61.33
50702;BME280;36670;50.094;8.496;2023-04-23T06:26:40;99684.38;;;19.26;60.55
50702;BME280;36670;50.094;8.496;2023-04-23T06:29:06;99684.78;;;20.60;56.91
50702;BME280;36670;50.094;8.496;2023-04-23T06:31:31;99678.00;;;21.59;56.31
50702;BME280;36670;50.094;8.496;2023-04-23T06:33:56;99687.59;;;20.60;56.78
50702;BME280;36670;50.094;8.496;2023-04-23T06:36:22;99687.59;;;20.69;56.81
50702;BME280;36670;50.094;8.496;2023-04-23T06:38:47;99681.09;;;21.67;55.34
50702;BME280;36670;50.094;8.496;2023-04-23T06:41:12;99683.81;;;21.96;54.79
50702;BME280;36670;50.094;8.496;2023-04-23T06:43:38;99689.88;;;21.65;54.87
50702;BME280;36670;50.094;8.496;2023-04-23T06:46:03;99697.03;;;21.24;54.61
50702;BME280;36670;50.094;8.496;2023-04-23T06:48:28;99692.94;;;20.91;54.15
50702;BME280;36670;50.094;8.496;2023-04-23T06:50:56;99685.72;;;20.08;54.25
50702;BME280;36670;50.094;8.496;2023-04-23T06:53:22;99678.66;;;19.84;55.63
50702;BME280;36670;50.094;8.496;2023-04-23T06:55:47;99680.97;;;19.91;55.25
50702;BME280;36670;50.094;8.496;2023-04-23T06:58:14;99679.91;;;19.17;57.35
50702;BME280;36670;50.094;8.496;2023-04-23T07:00:40;99679.59;;;19.27;56.52
50702;BME280;36670;50.094;8.496;2023-04-23T07:03:05;99675.41;;;18.98;56.78
50702;BME280;36670;50.094;8.496;2023-04-23T07:05:31;99659.94;;;18.60;56.90
50702;BME280;36670;50.094;8.496;2023-04-23T07:07:56;99662.16;;;18.81;57.04
50702;BME280;36670;50.094;8.496;2023-04-23T07:10:21;99669.97;;;18.62;57.63
50702;BME280;36670;50.094;8.496;2023-04-23T07:12:47;99655.13;;;18.52;58.35
50702;BME280;36670;50.094;8.496;2023-04-23T07:15:12;99654.63;;;18.50;58.78
50702;BME280;36670;50.094;8.496;2023-04-23T07:17:37;99645.03;;;18.74;58.20
50702;BME280;36670;50.094;8.496;2023-04-23T07:20:03;99648.38;;;18.85;59.03
50702;BME280;36670;50.094;8.496;2023-04-23T07:22:30;99634.16;;;19.56;56.14
50702;BME280;36670;50.094;8.496;2023-04-23T07:24:56;99639.41;;;19.23;56.82
50702;BME280;36670;50.094;8.496;2023-04-23T07:27:21;99642.13;;;18.88;57.40
50702;BME280;36670;50.094;8.496;2023-04-23T07:29:47;99651.16;;;18.85;57.04
50702;BME280;36670;50.094;8.496;2023-04-23T07:32:12;99664.06;;;19.03;56.10
50702;BME280;36670;50.094;8.496;2023-04-23T07:34:37;99662.47;;;19.28;56.25
50702;BME280;36670;50.094;8.496;2023-04-23T07:37:03;99656.06;;;19.28;56.69
50702;BME280;36670;50.094;8.496;2023-04-23T07:39:28;99655.56;;;19.78;56.09
50702;BME280;36670;50.094;8.496;2023-04-23T07:41:54;99646.88;;;19.89;55.44
50702;BME280;36670;50.094;8.496;2023-04-23T07:44:20;99644.88;;;19.63;55.52
50702;BME280;36670;50.094;8.496;2023-04-23T07:46:46;99651.81;;;19.57;55.49
50702;BME280;36670;50.094;8.496;2023-04-23T07:49:11;99649.16;;;18.76;56.04
50702;BME280;36670;50.094;8.496;2023-04-23T07:51:36;99652.25;;;19.15;55.95
50702;BME280;36670;50.094;8.496;2023-04-23T07:54:02;99654.25;;;19.23;56.00
50702;BME280;36670;50.094;8.496;2023-04-23T07:56:27;99649.06;;;18.59;56.54
50702;BME280;36670;50.094;8.496;2023-04-23T07:58:56;99645.13;;;18.91;56.11
50702;BME280;36670;50.094;8.496;2023-04-23T08:01:22;99642.09;;;18.39;57.19
50702;BME280;36670;50.094;8.496;2023-04-23T08:03:47;99650.03;;;18.23;57.76
50702;BME280;36670;50.094;8.496;2023-04-23T08:06:13;99646.63;;;18.26;57.82
50702;BME280;36670;50.094;8.496;2023-04-23T08:08:38;99650.88;;;18.55;57.41
50702;BME280;36670;50.094;8.496;2023-04-23T08:11:06;99645.03;;;18.34;57.53
50702;BME280;36670;50.094;8.496;2023-04-23T08:13:32;99638.09;;;18.63;57.72
50702;BME280;36670;50.094;8.496;2023-04-23T08:15:57;99640.06;;;19.20;56.59
50702;BME280;36670;50.094;8.496;2023-04-23T08:18:23;99640.63;;;18.82;57.77
50702;BME280;36670;50.094;8.496;2023-04-23T08:20:48;99638.41;;;19.10;57.08
50702;BME280;36670;50.094;8.496;2023-04-23T08:23:14;99635.66;;;18.79;57.79
50702;BME280;36670;50.094;8.496;2023-04-23T08:25:39;99635.31;;;19.38;56.91
50702;BME280;36670;50.094;8.496;2023-04-23T08:28:04;99630.53;;;19.38;56.72
50702;BME280;36670;50.094;8.496;2023-04-23T08:30:30;99619.69;;;19.63;56.45
50702;BME280;36670;50.094;8.496;2023-04-23T08:32:55;99621.66;;;19.63;55.42
50702;BME280;36670;50.094;8.496;2023-04-23T08:35:22;99621.97;;;19.26;56.55
50702;BME280;36670;50.094;8.496;2023-04-23T08:37:47;99616.22;;;19.75;56.38
50702;BME280;36670;50.094;8.496;2023-04-23T08:40:13;99615.19;;;20.06;54.32
50702;BME280;36670;50.094;8.496;2023-04-23T08:42:49;99607.00;;;20.39;52.51
50702;BME280;36670;50.094;8.496;2023-04-23T08:45:20;99610.88;;;20.17;53.83
50702;BME280;36670;50.094;8.496;2023-04-23T08:47:46;99617.47;;;20.21;54.32
50702;BME280;36670;50.094;8.496;2023-04-23T08:50:14;99615.88;;;20.50;54.22
50702;BME280;36670;50.094;8.496;2023-04-23T08:52:46;99610.75;;;20.91;52.88
50702;BME280;36670;50.094;8.496;2023-04-23T08:55:13;99609.72;;;20.66;52.60
50702;BME280;36670;50.094;8.496;2023-04-23T08:57:40;99613.56;;;20.91;52.19
50702;BME280;36670;50.094;8.496;2023-04-23T09:00:09;99606.69;;;20.79;52.31
50702;BME280;36670;50.094;8.496;2023-04-23T09:02:36;99598.66;;;20.60;51.83
50702;BME280;36670;50.094;8.496;2023-04-23T09:05:03;99598.16;;;20.58;52.71
50702;BME280;36670;50.094;8.496;2023-04-23T09:07:29;99594.50;;;20.75;51.74
50702;BME280;36670;50.094;8.496;2023-04-23T09:09:54;99598.59;;;21.08;52.15
50702;BME280;36670;50.094;8.496;2023-04-23T09:12:20;99605.47;;;20.89;51.49
50702;BME280;36670;50.094;8.496;2023-04-23T09:14:46;99596.81;;;21.03;52.93
50702;BME280;36670;50.094;8.496;2023-04-23T09:17:11;99597.63;;;21.25;50.85
50702;BME280;36670;50.094;8.496;2023-04-23T09:19:38;99591.91;;;21.63;50.28
50702;BME280;36670;50.094;8.496;2023-04-23T09:22:03;99581.47;;;21.97;48.51
50702;BME280;36670;50.094;8.496;2023-04-23T09:24:28;99585.06;;;22.31;47.89
50702;BME280;36670;50.094;8.496;2023-04-23T09:26:56;99583.81;;;22.54;47.13
50702;BME280;36670;50.094;8.496;2023-04-23T09:29:23;99575.75;;;22.52;47.37
50702;BME280;36670;50.094;8.496;2023-04-23T09:31:50;99579.53;;;22.10;47.33
50702;BME280;36670;50.094;8.496;2023-04-23T09:34:19;99580.50;;;21.93;47.53
50702;BME280;36670;50.094;8.496;2023-04-23T09:36:45;99566.56;;;21.85;48.25
50702;BME280;36670;50.094;8.496;2023-04-23T09:39:13;99566.69;;;21.12;48.17
50702;BME280;36670;50.094;8.496;2023-04-23T09:41:38;99567.50;;;20.92;48.98
50702;BME280;36670;50.094;8.496;2023-04-23T09:44:03;99567.50;;;20.92;49.47
50702;BME280;36670;50.094;8.496;2023-04-23T09:46:36;99563.13;;;21.24;48.62
50702;BME280;36670;50.094;8.496;2023-04-23T09:49:03;99562.88;;;21.17;48.99
50702;BME280;36670;50.094;8.496;2023-04-23T09:51:42;99570.88;;;21.27;48.83
50702;BME280;36670;50.094;8.496;2023-04-23T09:54:15;99562.03;;;21.17;48.66
50702;BME280;36670;50.094;8.496;2023-04-23T09:56:41;99563.06;;;21.12;49.12
50702;BME280;36670;50.094;8.496;2023-04-23T09:59:27;99558.78;;;21.69;49.01
50702;BME280;36670;50.094;8.496;2023-04-23T10:01:54;99546.66;;;21.77;48.54
50702;BME280;36670;50.094;8.496;2023-04-23T10:04:21;99552.63;;;21.76;47.60
50702;BME280;36670;50.094;8.496;2023-04-23T10:07:01;99547.16;;;22.04;47.85
50702;BME280;36670;50.094;8.496;2023-04-23T10:09:32;99549.00;;;21.88;47.14
50702;BME280;36670;50.094;8.496;2023-04-23T10:11:59;99549.00;;;21.88;47.22
50702;BME280;36670;50.094;8.496;2023-04-23T10:14:27;99543.16;;;21.93;47.26
50702;BME280;36670;50.094;8.496;2023-04-23T10:17:02;99553.28;;;21.60;47.30
50702;BME280;36670;50.094;8.496;2023-04-23T10:19:29;99550.81;;;21.59;47.51
50702;BME280;36670;50.094;8.496;2023-04-23T10:22:01;99542.53;;;21.75;47.57
50702;BME280;36670;50.094;8.496;2023-04-23T10:24:33;99543.13;;;21.26;47.97
50702;BME280;36670;50.094;8.496;2023-04-23T10:27:00;99542.72;;;21.36;48.41
50702;BME280;36670;50.094;8.496;2023-04-23T10:29:29;99547.72;;;21.30;48.11
50702;BME280;36670;50.094;8.496;2023-04-23T10:31:56;99549.28;;;21.40;48.28
50702;BME280;36670;50.094;8.496;2023-04-23T10:34:24;99545.44;;;21.66;48.30
50702;BME280;36670;50.094;8.496;2023-04-23T10:36:50;99541.63;;;21.83;48.35
50702;BME280;36670;50.094;8.496;2023-04-23T10:39:16;99544.16;;;21.63;47.67
50702;BME280;36670;50.094;8.496;2023-04-23T10:41:43;99540.44;;;21.72;47.85
50702;BME280;36670;50.094;8.496;2023-04-23T10:44:13;99546.19;;;21.75;48.05
50702;BME280;36670;50.094;8.496;2023-04-23T10:46:52;99533.13;;;21.37;48.58
50702;BME280;36670;50.094;8.496;2023-04-23T10:49:21;99524.22;;;21.56;47.95
50702;BME280;36670;50.094;8.496;2023-04-23T10:51:47;99527.66;;;20.98;48.37
50702;BME280;36670;50.094;8.496;2023-04-23T10:54:18;99524.03;;;21.19;48.96
50702;BME280;36670;50.094;8.496;2023-04-23T10:56:43;99517.66;;;21.31;48.56
50702;BME280;36670;50.094;8.496;2023-04-23T10:59:21;99505.88;;;21.59;48.20
50702;BME280;36670;50.094;8.496;2023-04-23T11:01:49;99509.16;;;21.40;47.96
50702;BME280;36670;50.094;8.496;2023-04-23T11:04:22;99508.63;;;21.25;47.69
50702;BME280;36670;50.094;8.496;2023-04-23T11:09:39;99500.91;;;21.56;48.75
50702;BME280;36670;50.094;8.496;2023-04-23T11:12:06;99498.44;;;22.00;47.81
50702;BME280;36670;50.094;8.496;2023-04-23T11:14:34;99496.78;;;21.74;48.08
50702;BME280;36670;50.094;8.496;2023-04-23T11:17:03;99491.06;;;21.95;47.26
50702;BME280;36670;50.094;8.496;2023-04-23T11:19:34;99497.56;;;21.62;47.64
50702;BME280;36670;50.094;8.496;2023-04-23T11:22:04;99486.56;;;21.70;47.06
50702;BME280;36670;50.094;8.496;2023-04-23T11:24:38;99494.31;;;21.52;47.42
50702;BME280;36670;50.094;8.496;2023-04-23T11:27:11;99491.22;;;21.32;47.62
50702;BME280;36670;50.094;8.496;2023-04-23T11:29:38;99489.34;;;20.82;48.80
50702;BME280;36670;50.094;8.496;2023-04-23T11:32:04;99490.56;;;20.12;49.90
50702;BME280;36670;50.094;8.496;2023-04-23T11:34:41;99484.59;;;19.75;50.70
50702;BME280;36670;50.094;8.496;2023-04-23T11:37:11;99480.19;;;19.56;51.10
50702;BME280;36670;50.094;8.496;2023-04-23T11:39:37;99475.75;;;19.47;51.22
50702;BME280;36670;50.094;8.496;2023-04-23T11:42:14;99476.72;;;19.51;51.33
50702;BME280;36670;50.094;8.496;2023-04-23T11:44:41;99480.53;;;19.46;52.21
50702;BME280;36670;50.094;8.496;2023-04-23T11:47:07;99484.47;;;19.63;53.51
50702;BME280;36670;50.094;8.496;2023-04-23T11:49:35;99477.53;;;19.60;53.96
50702;BME280;36670;50.094;8.496;2023-04-23T11:52:02;99472.28;;;19.58;54.09
50702;BME280;36670;50.094;8.496;2023-04-23T11:54:27;99477.34;;;19.83;54.09
50702;BME280;36670;50.094;8.496;2023-04-23T11:56:54;99462.41;;;20.00;54.40
50702;BME280;36670;50.094;8.496;2023-04-23T11:59:20;99463.31;;;20.21;54.06
50702;BME280;36670;50.094;8.496;2023-04-23T12:01:50;99451.41;;;20.54;54.00
50702;BME280;36670;50.094;8.496;2023-04-23T12:04:23;99448.31;;;20.77;53.58
50702;BME280;36670;50.094;8.496;2023-04-23T12:06:51;99447.38;;;20.64;54.12
50702;BME280;36670;50.094;8.496;2023-04-23T12:09:18;99433.31;;;20.73;53.68
50702;BME280;36670;50.094;8.496;2023-04-23T12:11:45;99423.47;;;20.88;53.44
50702;BME280;36670;50.094;8.496;2023-04-23T12:14:13;99423.25;;;20.72;52.28
50702;BME280;36670;50.094;8.496;2023-04-23T12:16:43;99416.97;;;21.08;52.37
50702;BME280;36670;50.094;8.496;2023-04-23T12:19:12;99425.84;;;20.77;52.59
50702;BME280;36670;50.094;8.496;2023-04-23T12:21:52;99419.75;;;20.96;51.39
50702;BME280;36670;50.094;8.496;2023-04-23T12:24:25;99422.19;;;21.19;51.66
50702;BME280;36670;50.094;8.496;2023-04-23T12:26:52;99424.88;;;20.94;51.88
50702;BME280;36670;50.094;8.496;2023-04-23T12:29:19;99411.69;;;21.40;52.13
50702;BME280;36670;50.094;8.496;2023-04-23T12:31:46;99409.94;;;21.94;51.12
50702;BME280;36670;50.094;8.496;2023-04-23T12:34:13;99405.09;;;22.19;50.38
50702;BME280;36670;50.094;8.496;2023-04-23T12:36:44;99396.75;;;22.47;50.13
50702;BME280;36670;50.094;8.496;2023-04-23T12:39:28;99381.31;;;22.82;49.40
50702;BME280;36670;50.094;8.496;2023-04-23T12:42:02;99372.53;;;22.71;46.90
50702;BME280;36670;50.094;8.496;2023-04-23T12:44:30;99364.09;;;22.18;47.28
50702;BME280;36670;50.094;8.496;2023-04-23T12:46:58;99364.44;;;22.29;47.41
50702;BME280;36670;50.094;8.496;2023-04-23T12:49:25;99368.63;;;22.47;47.45
50702;BME280;36670;50.094;8.496;2023-04-23T12:51:52;99364.34;;;22.78;47.48
50702;BME280;36670;50.094;8.496;2023-04-23T12:54:24;99356.63;;;22.63;46.57
50702;BME280;36670;50.094;8.496;2023-04-23T12:56:49;99346.88;;;22.73;46.05
50702;BME280;36670;50.094;8.496;2023-04-23T12:59:15;99343.19;;;22.56;46.59